Time;durP1;ratioP1;P1;durP2;ratioP2;P2;SDS_P1;SDS_P2;PMS_P1;PMS_P2;Temp;Humidity;BMP_temperature;BMP_pressure;BME280_temperature;BME280_humidity;BME280_pressure;Samples;Min_cycle;Max_cycle;Signal;HPM_P1;HPM_P2
2021/05/26 00:02:25;;;;;;;1.85;1.10;;;;;;;7.75;100.00;98162.48;3807554;77;44791;-21
2021/05/26 00:07:31;;;;;;;2.55;1.12;;;;;;;7.76;100.00;98161.49;3805895;76;44104;-21
2021/05/26 00:12:36;;;;;;;3.35;1.50;;;;;;;7.79;100.00;98162.03;3809570;76;43420;-21
2021/05/26 00:17:44;;;;;;;2.30;1.27;;;;;;;7.70;100.00;98149.52;3805826;76;43272;-19
2021/05/26 00:22:50;;;;;;;3.08;1.30;;;;;;;7.64;100.00;98155.50;3809141;77;43983;-20
2021/05/26 00:27:58;;;;;;;2.02;1.30;;;;;;;7.62;100.00;98143.56;3808444;76;44851;-20
2021/05/26 00:33:05;;;;;;;3.15;1.30;;;;;;;7.58;100.00;98138.17;3808604;76;43737;-20
2021/05/26 00:38:13;;;;;;;3.35;1.25;;;;;;;7.51;100.00;98133.91;3806058;77;43401;-22
2021/05/26 00:43:19;;;;;;;4.30;1.30;;;;;;;7.56;100.00;98134.80;3662465;79;44496;-20
2021/05/26 00:48:25;;;;;;;3.12;1.40;;;;;;;7.53;100.00;98143.95;3731888;79;43680;-20
2021/05/26 00:53:33;;;;;;;2.90;1.60;;;;;;;7.48;100.00;98142.72;3814837;76;44005;-21
2021/05/26 00:58:40;;;;;;;1.83;1.30;;;;;;;7.50;100.00;98138.91;3747873;78;43425;-19
2021/05/26 01:03:47;;;;;;;2.50;1.20;;;;;;;7.48;100.00;98139.55;3759172;78;44021;-20
2021/05/26 01:08:53;;;;;;;3.12;1.47;;;;;;;7.52;100.00;98140.09;3814404;77;43697;-20
2021/05/26 01:14:00;;;;;;;2.25;1.20;;;;;;;7.59;100.00;98133.13;3714119;78;43405;-20
2021/05/26 01:19:06;;;;;;;3.55;1.50;;;;;;;7.77;100.00;98121.10;3714734;79;43701;-20
2021/05/26 01:24:12;;;;;;;2.47;1.42;;;;;;;7.80;100.00;98123.49;3748166;78;410292;-19
2021/05/26 01:29:19;;;;;;;2.15;1.22;;;;;;;7.92;100.00;98105.84;3693742;79;43677;-19
2021/05/26 01:34:26;;;;;;;4.03;1.60;;;;;;;7.93;100.00;98111.07;3761242;78;43978;-20
2021/05/26 01:39:32;;;;;;;4.25;1.57;;;;;;;7.86;100.00;98110.84;3682050;79;43968;-20
2021/05/26 01:44:39;;;;;;;2.02;1.30;;;;;;;7.78;100.00;98108.55;3737944;78;43712;-19
2021/05/26 01:49:49;;;;;;;2.30;1.40;;;;;;;7.76;100.00;98110.54;3738358;78;26381;-22
2021/05/26 01:54:55;;;;;;;5.87;1.60;;;;;;;7.74;100.00;98124.59;3743794;78;44076;-21
2021/05/26 02:00:03;;;;;;;4.22;1.45;;;;;;;7.70;100.00;98123.55;3740613;78;43677;-19
2021/05/26 02:05:13;;;;;;;2.72;1.70;;;;;;;7.81;100.00;98120.33;3738206;78;26342;-20
2021/05/26 02:12:20;;;;;;;2.83;1.70;;;;;;;7.82;100.00;98110.78;3738305;78;44156;-19
2021/05/26 02:15:29;;;;;;;4.72;1.80;;;;;;;7.81;100.00;98094.85;3732305;78;44022;-20
2021/05/26 02:20:35;;;;;;;3.40;1.62;;;;;;;7.76;100.00;98103.84;3742098;78;44054;-19
2021/05/26 02:25:42;;;;;;;5.08;1.90;;;;;;;7.75;100.00;98110.19;3740266;78;42914;-20
2021/05/26 02:30:48;;;;;;;3.80;1.73;;;;;;;7.75;100.00;98112.88;3738994;78;73318;-20
2021/05/26 02:35:55;;;;;;;2.98;1.50;;;;;;;7.68;100.00;98117.52;3743885;78;43678;-20
2021/05/26 02:41:02;;;;;;;3.33;1.50;;;;;;;7.53;100.00;98105.09;3683925;79;43681;-20
2021/05/26 02:46:08;;;;;;;2.90;1.60;;;;;;;7.49;100.00;98105.53;3748252;77;44014;-20
2021/05/26 02:51:14;;;;;;;3.22;1.80;;;;;;;7.52;100.00;98102.56;3735845;79;43267;-20
2021/05/26 02:56:20;;;;;;;2.47;1.50;;;;;;;7.55;100.00;98102.27;3732638;77;43689;-20
2021/05/26 03:01:34;;;;;;;3.85;2.20;;;;;;;7.49;100.00;98098.84;3661517;79;26466;-19
2021/05/26 03:06:43;;;;;;;3.65;1.90;;;;;;;7.46;100.00;98096.48;3618657;79;26384;-19
2021/05/26 03:11:49;;;;;;;2.98;1.90;;;;;;;7.41;100.00;98091.54;3601335;81;44022;-21
2021/05/26 03:17:00;;;;;;;4.80;1.97;;;;;;;7.35;100.00;98084.11;3592071;81;26520;-21
2021/05/26 03:22:07;;;;;;;2.62;2.00;;;;;;;7.31;100.00;98082.23;3586204;81;43999;-22
2021/05/26 03:27:35;;;;;;;6.67;2.37;;;;;;;7.25;100.00;98078.31;3596015;81;27038;-22
2021/05/26 03:32:42;;;;;;;2.58;1.95;;;;;;;7.22;100.00;98079.11;3588165;82;43708;-22
2021/05/26 03:37:50;;;;;;;3.75;2.00;;;;;;;7.20;100.00;98090.47;3597144;81;45159;-21
2021/05/26 03:42:59;;;;;;;2.65;2.08;;;;;;;7.17;100.00;98084.06;3567377;81;44090;-21
2021/05/26 03:48:10;;;;;;;4.78;2.20;;;;;;;7.14;100.00;98081.66;3595187;81;26775;-21
2021/05/26 03:53:16;;;;;;;3.83;2.10;;;;;;;7.18;100.00;98071.02;3593179;82;43993;-19
2021/05/26 03:58:24;;;;;;;4.67;2.00;;;;;;;7.19;100.00;98066.83;3595550;81;43343;-19
2021/05/26 04:03:30;;;;;;;4.62;1.87;;;;;;;7.22;100.00;98075.09;3594285;81;43336;-19
2021/05/26 04:08:39;;;;;;;2.95;1.80;;;;;;;7.21;100.00;98060.00;3591636;81;73510;-21
2021/05/26 04:13:46;;;;;;;5.95;1.95;;;;;;;7.27;100.00;98054.55;3594234;81;43673;-21
2021/05/26 04:19:13;;;;;;;2.02;1.60;;;;;;;7.31;100.00;98051.41;3594334;81;26922;-21
2021/05/26 04:24:19;;;;;;;4.70;2.20;;;;;;;7.31;100.00;98059.45;3590732;81;73163;-22
2021/05/26 04:29:27;;;;;;;3.75;2.30;;;;;;;7.29;100.00;98057.41;3597745;81;43676;-22
2021/05/26 04:34:33;;;;;;;4.83;2.37;;;;;;;7.32;100.00;98047.75;3561796;82;88974;-22
2021/05/26 04:39:40;;;;;;;4.22;2.00;;;;;;;7.37;100.00;98045.44;3579323;81;43680;-20
2021/05/26 04:44:46;;;;;;;2.65;2.00;;;;;;;7.53;100.00;98042.09;3667482;79;43121;-20
2021/05/26 04:49:52;;;;;;;3.15;1.80;;;;;;;7.73;100.00;98030.39;3650583;80;43053;-22
2021/05/26 04:54:58;;;;;;;3.55;2.10;;;;;;;7.94;100.00;98030.92;3656045;80;42907;-22
2021/05/26 05:00:06;;;;;;;3.77;2.05;;;;;;;8.20;100.00;98024.77;3644528;80;44786;-22
2021/05/26 05:05:14;;;;;;;3.37;1.90;;;;;;;8.38;100.00;98027.41;3602473;81;44648;-20
2021/05/26 05:10:20;;;;;;;3.00;1.85;;;;;;;8.56;100.00;98030.08;3690787;79;43676;-21
2021/05/26 05:15:26;;;;;;;4.72;1.90;;;;;;;8.68;100.00;98025.78;3704762;79;43218;-21
2021/05/26 05:20:32;;;;;;;1.77;1.60;;;;;;;8.73;100.00;98026.16;3723447;79;43659;-20
2021/05/26 05:25:37;;;;;;;6.08;2.17;;;;;;;8.75;100.00;98019.63;3660978;80;43355;-20
2021/05/26 05:30:43;;;;;;;4.75;2.50;;;;;;;8.77;100.00;98029.71;3676004;80;44214;-20
2021/05/26 05:35:49;;;;;;;4.42;2.00;;;;;;;8.88;100.00;98033.95;3622639;81;73272;-21
2021/05/26 05:40:55;;;;;;;3.98;1.85;;;;;;;9.03;100.00;98033.35;3698586;79;44058;-20
2021/05/26 05:46:02;;;;;;;3.52;1.95;;;;;;;9.15;100.00;98029.38;3665635;80;43485;-20
2021/05/26 05:51:07;;;;;;;3.05;2.10;;;;;;;9.20;100.00;98023.02;3621628;81;44501;-20
2021/05/26 05:56:13;;;;;;;3.60;1.90;;;;;;;9.30;100.00;98020.70;3624672;81;44064;-20
2021/05/26 06:01:19;;;;;;;2.83;1.70;;;;;;;9.43;100.00;98010.33;3617110;81;44441;-21
2021/05/26 06:06:26;;;;;;;4.00;1.80;;;;;;;9.57;100.00;98008.83;3617190;81;43674;-20
2021/05/26 06:11:33;;;;;;;5.35;2.00;;;;;;;9.72;100.00;98007.67;3609912;81;44050;-20
2021/05/26 06:16:39;;;;;;;3.95;2.20;;;;;;;9.84;100.00;98010.38;3579959;82;44061;-21
2021/05/26 06:21:45;;;;;;;5.55;1.85;;;;;;;10.07;100.00;98005.67;3613670;81;43713;-21
2021/05/26 06:26:51;;;;;;;4.03;2.00;;;;;;;10.21;100.00;98006.02;3605141;81;44668;-21
2021/05/26 06:31:58;;;;;;;5.67;2.27;;;;;;;10.18;100.00;97994.57;3609897;81;43689;-20
2021/05/26 06:37:04;;;;;;;2.62;1.87;;;;;;;10.31;100.00;97995.91;3565661;82;44084;-21
2021/05/26 06:42:10;;;;;;;4.30;1.75;;;;;;;10.42;100.00;97988.84;3542380;82;43685;-20
2021/05/26 06:47:16;;;;;;;2.90;1.50;;;;;;;10.61;100.00;97985.46;3546899;83;43147;-21
2021/05/26 06:52:23;;;;;;;3.35;1.67;;;;;;;10.66;100.00;97983.07;3550394;83;44675;-20
2021/05/26 06:57:29;;;;;;;5.08;1.72;;;;;;;11.11;100.00;97976.69;3539086;83;43717;-21
2021/05/26 07:02:35;;;;;;;2.35;1.45;;;;;;;11.27;100.00;97968.19;3544516;83;43097;-21
2021/05/26 07:07:41;;;;;;;1.95;1.47;;;;;;;11.02;100.00;97975.05;3572747;83;43276;-23
2021/05/26 07:12:50;;;;;;;4.45;1.80;;;;;;;10.88;100.00;97973.91;3567664;83;44019;-22
2021/05/26 07:17:57;;;;;;;1.92;1.25;;;;;;;10.87;100.00;97966.86;3576675;83;44018;-23
2021/05/26 07:23:02;;;;;;;2.87;1.60;;;;;;;11.05;100.00;97952.62;3572210;83;43321;-22
2021/05/26 07:28:08;;;;;;;3.55;1.70;;;;;;;11.17;100.00;97960.31;3562453;83;44643;-22
2021/05/26 07:33:14;;;;;;;1.27;1.12;;;;;;;11.04;100.00;97951.45;3567856;83;44053;-22
2021/05/26 07:38:20;;;;;;;1.57;1.10;;;;;;;11.16;100.00;97950.05;3579186;83;43294;-23
2021/05/26 07:43:27;;;;;;;3.22;1.20;;;;;;;11.25;100.00;97950.82;3565012;82;44066;-21
2021/05/26 07:48:33;;;;;;;2.98;1.35;;;;;;;11.08;100.00;97944.68;3581081;82;44525;-21
2021/05/26 07:53:39;;;;;;;3.02;1.40;;;;;;;11.08;100.00;97945.53;3589086;82;43663;-21
2021/05/26 07:58:45;;;;;;;2.40;1.50;;;;;;;11.04;100.00;97948.23;3578504;82;43725;-21
2021/05/26 08:03:51;;;;;;;5.37;1.60;;;;;;;10.95;100.00;97942.56;3584216;82;42720;-21
2021/05/26 08:08:56;;;;;;;3.83;1.75;;;;;;;10.80;100.00;97946.50;3584509;82;44036;-21
2021/05/26 08:14:02;;;;;;;3.85;1.70;;;;;;;10.72;100.00;97945.17;3584148;82;43045;-22
2021/05/26 08:19:07;;;;;;;3.15;1.90;;;;;;;10.77;100.00;97947.67;3586055;82;43752;-20
2021/05/26 08:24:12;;;;;;;3.70;1.70;;;;;;;10.67;100.00;97929.53;3580882;82;43385;-21
2021/05/26 08:29:18;;;;;;;1.92;1.62;;;;;;;10.64;100.00;97928.55;3582497;82;44751;-22
2021/05/26 08:34:23;;;;;;;2.10;1.47;;;;;;;10.55;100.00;97928.22;3576459;82;44375;-21
2021/05/26 08:39:33;;;;;;;1.98;1.50;;;;;;;10.47;100.00;97919.17;3581321;82;43774;-21
2021/05/26 08:44:35;;;;;;;2.70;1.70;;;;;;;10.36;100.00;97918.16;3582010;81;44683;-21
2021/05/26 08:49:43;;;;;;;4.15;1.67;;;;;;;10.34;100.00;97910.76;3605259;81;44687;-22
2021/05/26 08:54:48;;;;;;;1.92;1.22;;;;;;;10.37;100.00;97910.42;3577035;82;44673;-21
2021/05/26 08:59:54;;;;;;;2.62;1.17;;;;;;;10.35;100.00;97902.19;3570579;82;44588;-21
2021/05/26 09:04:59;;;;;;;2.65;1.05;;;;;;;10.41;100.00;97905.55;3549500;82;44625;-21
2021/05/26 09:10:07;;;;;;;2.27;1.20;;;;;;;10.45;100.00;97899.65;3630913;81;45120;-21
2021/05/26 09:15:16;;;;;;;1.35;0.90;;;;;;;10.47;100.00;97892.23;3622259;81;43796;-21
2021/05/26 09:20:23;;;;;;;1.35;1.00;;;;;;;10.55;100.00;97896.77;3623169;81;43341;-21
2021/05/26 09:25:30;;;;;;;1.10;1.00;;;;;;;10.64;100.00;97895.70;3572436;82;43379;-21
2021/05/26 09:30:35;;;;;;;1.32;1.00;;;;;;;10.69;100.00;97893.01;3566656;82;44690;-21
2021/05/26 09:35:41;;;;;;;3.62;1.20;;;;;;;10.64;100.00;97898.92;3623980;81;43549;-21
2021/05/26 09:40:46;;;;;;;1.30;1.00;;;;;;;10.61;100.00;97889.84;3571128;81;44535;-21
2021/05/26 09:45:51;;;;;;;1.40;0.95;;;;;;;10.60;100.00;97896.23;3662766;80;43610;-21
2021/05/26 09:50:58;;;;;;;2.62;1.12;;;;;;;10.54;100.00;97894.22;3686208;80;43709;-21
2021/05/26 09:56:03;;;;;;;1.10;0.98;;;;;;;10.66;100.00;97887.44;3683147;79;43073;-21
2021/05/26 10:01:08;;;;;;;1.17;1.00;;;;;;;10.98;100.00;97880.72;3688983;79;43560;-21
2021/05/26 10:06:14;;;;;;;1.60;1.10;;;;;;;11.10;100.00;97878.81;3615182;81;44095;-21
2021/05/26 10:11:38;;;;;;;2.10;1.22;;;;;;;11.29;100.00;97875.83;3620391;81;26998;-22
2021/05/26 10:16:45;;;;;;;2.20;1.20;;;;;;;11.39;100.00;97869.16;3615826;81;43705;-21
2021/05/26 10:21:52;;;;;;;3.27;1.10;;;;;;;11.37;100.00;97872.54;3615863;81;43479;-22
2021/05/26 10:27:02;;;;;;;1.40;1.25;;;;;;;11.17;100.00;97873.52;3621801;81;44034;-21
2021/05/26 10:32:11;;;;;;;2.47;1.17;;;;;;;11.05;100.00;97862.31;3665565;80;44374;-21
2021/05/26 10:37:25;;;;;;;2.20;1.00;;;;;;;11.15;100.00;97867.48;3666017;79;43999;-22
2021/05/26 10:42:33;;;;;;;1.42;1.05;;;;;;;10.94;100.00;97868.94;3675127;80;44033;-21
2021/05/26 10:47:46;;;;;;;2.98;1.10;;;;;;;10.91;100.00;97865.77;3667649;80;43411;-21
2021/05/26 10:53:18;;;;;;;0.88;0.80;;;;;;;11.12;100.00;97861.59;3669170;80;43945;-20
2021/05/26 10:58:26;;;;;;;1.27;0.80;;;;;;;11.27;100.00;97857.63;3662961;80;44193;-21
2021/05/26 11:03:36;;;;;;;1.02;0.65;;;;;;;11.30;100.00;97856.76;3698742;80;43726;-20
2021/05/26 11:08:45;;;;;;;1.20;0.90;;;;;;;11.29;100.00;97854.25;3568687;82;44083;-21
2021/05/26 11:14:02;;;;;;;1.75;0.70;;;;;;;11.23;100.00;97854.47;3663088;81;43295;-21
2021/05/26 11:19:10;;;;;;;1.15;0.80;;;;;;;11.24;100.00;97851.58;3664067;81;43714;-21
2021/05/26 11:24:18;;;;;;;0.82;0.80;;;;;;;11.22;100.00;97849.56;3699859;80;43083;-21
2021/05/26 11:29:28;;;;;;;2.35;1.00;;;;;;;11.17;100.00;97859.20;3682998;80;44762;-20
2021/05/26 11:34:35;;;;;;;1.98;1.10;;;;;;;11.27;100.00;97856.28;3695029;80;44025;-21
2021/05/26 11:39:42;;;;;;;1.40;1.10;;;;;;;11.24;100.00;97857.46;3690613;80;43167;-21
2021/05/26 11:44:56;;;;;;;1.95;0.98;;;;;;;11.04;100.00;97857.94;3682855;79;44068;-20
2021/05/26 11:50:19;;;;;;;2.22;1.12;;;;;;;10.94;100.00;97862.72;3665041;80;44049;-21
2021/05/26 11:55:26;;;;;;;1.57;1.40;;;;;;;10.90;100.00;97868.98;3660112;80;43277;-21
2021/05/26 12:00:36;;;;;;;2.25;1.37;;;;;;;10.91;100.00;97865.77;3662466;80;44658;-21
2021/05/26 12:05:47;;;;;;;3.58;1.67;;;;;;;10.92;100.00;97864.26;3657023;80;43981;-21
2021/05/26 12:10:55;;;;;;;2.87;1.80;;;;;;;10.92;100.00;97859.36;3660148;80;43337;-21
2021/05/26 12:16:05;;;;;;;2.58;1.72;;;;;;;11.14;100.00;97844.73;3662028;80;43336;-21
2021/05/26 12:21:11;;;;;;;1.62;1.40;;;;;;;11.24;100.00;97848.02;3657651;80;43719;-21
2021/05/26 12:26:26;;;;;;;2.47;1.67;;;;;;;11.19;100.00;97843.70;3653706;79;43362;-21
2021/05/26 12:31:34;;;;;;;4.08;1.55;;;;;;;11.46;100.00;97835.56;3648657;80;44035;-21
2021/05/26 12:36:49;;;;;;;2.75;1.60;;;;;;;11.68;100.00;97828.95;3654103;80;44010;-21
2021/05/26 12:41:55;;;;;;;2.10;1.50;;;;;;;11.65;100.00;97836.92;3655178;80;43510;-21
2021/05/26 12:47:03;;;;;;;2.25;1.87;;;;;;;11.44;100.00;97836.77;3645437;80;43466;-21
2021/05/26 12:52:15;;;;;;;2.30;1.45;;;;;;;11.51;100.00;97836.36;3646434;80;43705;-21
2021/05/26 12:57:23;;;;;;;2.42;1.55;;;;;;;11.81;100.00;97815.68;3641692;80;43696;-21
2021/05/26 13:02:33;;;;;;;1.40;1.30;;;;;;;11.84;100.00;97813.11;3656217;80;44007;-21
2021/05/26 13:07:44;;;;;;;2.42;1.10;;;;;;;12.28;100.00;97808.78;3659351;80;43298;-21
2021/05/26 13:12:51;;;;;;;2.10;1.10;;;;;;;12.37;100.00;97809.53;3680710;80;43978;-21
2021/05/26 13:17:59;;;;;;;1.17;1.00;;;;;;;12.15;100.00;97822.42;3634550;81;43696;-21
2021/05/26 13:23:07;;;;;;;1.22;1.00;;;;;;;11.92;100.00;97817.09;3722031;79;43693;-20
2021/05/26 13:28:17;;;;;;;0.95;0.85;;;;;;;11.92;100.00;97814.40;3711000;79;44047;-21
2021/05/26 13:33:26;;;;;;;1.40;1.00;;;;;;;11.71;100.00;97824.03;3707927;79;43983;-20
2021/05/26 13:38:32;;;;;;;1.02;0.82;;;;;;;12.07;100.00;97810.88;3673688;80;43674;-21
2021/05/26 13:43:39;;;;;;;2.60;1.10;;;;;;;13.02;100.00;97800.17;3665543;80;44006;-21
2021/05/26 13:48:45;;;;;;;1.72;1.10;;;;;;;13.39;100.00;97800.95;3640273;81;43266;-21
2021/05/26 13:53:52;;;;;;;1.37;1.17;;;;;;;13.33;100.00;97784.98;3628783;81;43357;-21
2021/05/26 13:58:59;;;;;;;1.75;1.27;;;;;;;13.08;100.00;97785.38;3673610;80;44579;-21
2021/05/26 14:04:07;;;;;;;0.82;0.82;;;;;;;12.67;100.00;97793.25;3621837;81;43325;-20
2021/05/26 14:09:13;;;;;;;1.40;1.10;;;;;;;12.44;100.00;97794.23;3608174;81;43009;-21
2021/05/26 14:14:19;;;;;;;1.55;1.30;;;;;;;12.31;100.00;97790.86;3658888;80;43114;-21
2021/05/26 14:19:24;;;;;;;1.67;1.40;;;;;;;12.13;100.00;97793.95;3627973;81;43310;-21
2021/05/26 14:24:30;;;;;;;5.87;3.60;;;;;;;11.84;100.00;97789.67;3668516;80;44207;-21
2021/05/26 14:29:36;;;;;;;2.83;1.70;;;;;;;11.95;100.00;97781.61;3604924;81;43047;-21
2021/05/26 14:34:44;;;;;;;1.50;1.40;;;;;;;12.01;100.00;97772.82;3600661;81;43697;-20
2021/05/26 14:39:51;;;;;;;1.57;1.17;;;;;;;12.30;100.00;97775.68;3611242;81;44029;-21
2021/05/26 14:44:59;;;;;;;1.20;1.10;;;;;;;12.28;100.00;97769.63;3642436;80;44399;-21
2021/05/26 14:50:06;;;;;;;1.27;1.12;;;;;;;12.59;100.00;97757.22;3589857;81;44052;-21
2021/05/26 14:55:13;;;;;;;1.07;0.90;;;;;;;12.88;100.00;97747.84;3640523;80;43361;-21
2021/05/26 15:00:22;;;;;;;1.27;0.90;;;;;;;13.56;100.00;97742.85;3639042;79;43416;-21
2021/05/26 15:05:28;;;;;;;2.05;1.25;;;;;;;13.02;100.00;97752.86;3627312;80;44085;-21
2021/05/26 15:10:35;;;;;;;1.00;0.85;;;;;;;13.45;100.00;97748.81;3634567;81;43079;-22
2021/05/26 15:15:41;;;;;;;1.77;0.98;;;;;;;13.29;100.00;97743.11;3693736;79;43707;-22
2021/05/26 15:20:47;;;;;;;0.82;0.80;;;;;;;13.41;100.00;97740.75;3704972;79;43645;-22
2021/05/26 15:25:53;;;;;;;0.80;0.80;;;;;;;13.15;100.00;97743.52;3704328;79;43376;-22
2021/05/26 15:30:58;;;;;;;1.20;0.90;;;;;;;13.54;100.00;97730.53;3716270;79;44093;-22
2021/05/26 15:36:06;;;;;;;1.85;0.78;;;;;;;14.23;100.00;97733.42;3718632;79;44081;-22
2021/05/26 15:41:12;;;;;;;0.70;0.70;;;;;;;13.94;100.00;97724.52;3699204;79;44056;-22
2021/05/26 15:46:18;;;;;;;0.85;0.60;;;;;;;13.50;100.00;97726.03;3701262;79;44080;-21
2021/05/26 15:51:23;;;;;;;0.80;0.80;;;;;;;13.02;100.00;97723.12;3631786;81;43322;-22
2021/05/26 15:56:30;;;;;;;1.10;0.70;;;;;;;12.64;100.00;97713.41;3668221;77;138193;-22
2021/05/26 16:01:36;;;;;;;1.35;0.80;;;;;;;12.43;100.00;97711.02;3744410;78;43673;-22
2021/05/26 16:06:46;;;;;;;1.50;0.80;;;;;;;12.02;100.00;97712.90;3674835;80;43489;-22
2021/05/26 16:11:52;;;;;;;0.70;0.70;;;;;;;11.78;100.00;97710.79;3757790;78;43208;-22
2021/05/26 16:17:02;;;;;;;1.62;1.05;;;;;;;11.78;100.00;97703.22;3769027;78;44204;-22
2021/05/26 16:22:06;;;;;;;1.20;1.10;;;;;;;11.76;100.00;97699.87;3672815;80;43322;-22
2021/05/26 16:27:13;;;;;;;2.85;1.20;;;;;;;11.71;100.00;97690.98;3761598;78;44073;-22
2021/05/26 16:32:19;;;;;;;2.75;1.30;;;;;;;11.53;100.00;97690.83;3680262;80;43726;-21
2021/05/26 16:37:25;;;;;;;2.37;1.80;;;;;;;11.54;100.00;97690.34;3673922;80;43992;-21
2021/05/26 16:42:33;;;;;;;2.08;1.47;;;;;;;11.48;100.00;97685.66;3680125;80;43403;-22
2021/05/26 16:47:40;;;;;;;2.42;2.22;;;;;;;11.40;100.00;97682.05;3680396;80;44220;-21
2021/05/26 16:52:49;;;;;;;2.00;1.77;;;;;;;11.25;100.00;97682.53;3680375;80;43649;-21
2021/05/26 16:57:55;;;;;;;3.90;2.80;;;;;;;11.28;100.00;97680.00;3683667;80;43681;-21
2021/05/26 17:03:02;;;;;;;2.52;1.95;;;;;;;11.29;100.00;97679.81;3688126;80;43361;-21
2021/05/26 17:08:11;;;;;;;6.50;4.10;;;;;;;11.16;100.00;97678.25;3709654;79;44252;-21
2021/05/26 17:13:16;;;;;;;3.65;2.17;;;;;;;11.12;100.00;97680.48;3640308;80;44070;-21
2021/05/26 17:18:22;;;;;;;1.62;1.30;;;;;;;10.95;100.00;97679.27;3749378;77;43992;-21
2021/05/26 17:23:28;;;;;;;2.80;1.27;;;;;;;10.82;100.00;97675.53;3700665;80;44050;-20
2021/05/26 17:28:35;;;;;;;1.82;1.27;;;;;;;10.70;100.00;97678.65;3651342;80;44341;-21
2021/05/26 17:33:45;;;;;;;2.10;1.70;;;;;;;10.57;100.00;97686.48;3632085;80;43970;-21
2021/05/26 17:38:49;;;;;;;6.25;1.80;;;;;;;10.47;100.00;97688.91;3645524;80;43119;-23
2021/05/26 17:43:55;;;;;;;3.35;1.45;;;;;;;10.37;100.00;97703.09;3639326;80;44797;-23
2021/05/26 17:49:02;;;;;;;2.87;1.25;;;;;;;10.20;100.00;97706.39;3760732;76;44255;-24
2021/05/26 17:54:08;;;;;;;2.42;0.70;;;;;;;10.07;100.00;97736.55;3748175;79;44024;-22
2021/05/26 17:59:14;;;;;;;1.82;0.72;;;;;;;9.35;100.00;97736.11;3807588;76;43682;-22
2021/05/26 18:04:24;;;;;;;0.40;0.35;;;;;;;9.00;100.00;97732.27;3819402;77;44045;-22
2021/05/26 18:09:30;;;;;;;1.02;0.40;;;;;;;8.76;100.00;97711.62;3811304;76;44703;-22
2021/05/26 18:14:36;;;;;;;0.78;0.60;;;;;;;8.82;100.00;97723.55;3819797;76;44006;-22
2021/05/26 18:19:42;;;;;;;0.40;0.40;;;;;;;9.35;100.00;97713.27;3814627;76;44424;-21
2021/05/26 18:24:48;;;;;;;0.75;0.50;;;;;;;9.65;100.00;97711.64;3823412;76;44083;-21
2021/05/26 18:29:54;;;;;;;0.53;0.40;;;;;;;9.78;100.00;97715.64;3822751;76;43310;-21
2021/05/26 18:35:00;;;;;;;0.50;0.50;;;;;;;9.85;100.00;97710.73;3814775;76;44042;-21
2021/05/26 18:40:08;;;;;;;0.60;0.60;;;;;;;9.79;100.00;97726.25;3821896;76;42813;-21
2021/05/26 18:45:17;;;;;;;1.85;0.80;;;;;;;9.54;100.00;97724.97;3822699;77;44142;-20
2021/05/26 18:50:29;;;;;;;0.65;0.60;;;;;;;9.36;100.00;97725.66;3823908;77;43416;-21
2021/05/26 18:55:36;;;;;;;0.78;0.68;;;;;;;9.12;100.00;97739.98;3821338;76;44077;-20
2021/05/26 19:00:47;;;;;;;1.23;0.60;;;;;;;9.00;100.00;97736.78;3821924;77;43999;-20
2021/05/26 19:05:53;;;;;;;0.82;0.62;;;;;;;8.89;100.00;97743.34;3732071;79;44674;-24
2021/05/26 19:11:01;;;;;;;0.60;0.60;;;;;;;8.68;100.00;97750.53;3790882;77;44120;-24
2021/05/26 19:16:09;;;;;;;0.90;0.62;;;;;;;8.57;100.00;97763.28;3734868;78;44172;-25
2021/05/26 19:21:18;;;;;;;1.55;0.70;;;;;;;8.43;100.00;97777.30;3797958;78;44173;-25
2021/05/26 19:26:24;;;;;;;1.10;0.90;;;;;;;8.30;100.00;97796.56;3735303;78;43338;-24
2021/05/26 19:31:31;;;;;;;1.72;0.78;;;;;;;8.14;100.00;97813.44;3785525;78;44597;-25
2021/05/26 19:36:40;;;;;;;0.90;0.65;;;;;;;7.99;100.00;97828.78;3742090;79;44144;-25
2021/05/26 19:41:46;;;;;;;1.37;1.00;;;;;;;7.93;100.00;97834.80;3787569;77;44099;-24
2021/05/26 19:46:52;;;;;;;1.03;0.90;;;;;;;7.89;100.00;97848.66;3789799;77;43726;-24
2021/05/26 19:51:59;;;;;;;1.10;0.90;;;;;;;7.91;100.00;97850.69;3755477;78;43477;-25
2021/05/26 19:57:07;;;;;;;0.70;0.70;;;;;;;7.89;100.00;97861.59;3687457;79;44047;-24
2021/05/26 20:02:13;;;;;;;0.70;0.70;;;;;;;7.88;100.00;97871.97;3714936;79;43401;-23
2021/05/26 20:07:19;;;;;;;0.80;0.70;;;;;;;7.90;100.00;97870.46;3714402;78;43369;-25
2021/05/26 20:12:26;;;;;;;0.78;0.70;;;;;;;7.95;100.00;97880.23;3758713;77;43320;-25
2021/05/26 20:17:33;;;;;;;1.65;0.70;;;;;;;7.92;100.00;97876.03;3755573;77;44375;-25
2021/05/26 20:22:40;;;;;;;0.97;0.70;;;;;;;7.90;100.00;97885.21;3748029;78;44065;-25
2021/05/26 20:27:46;;;;;;;0.95;0.80;;;;;;;7.85;100.00;97887.03;3749024;77;43440;-25
2021/05/26 20:32:52;;;;;;;1.17;1.07;;;;;;;7.82;100.00;97886.02;3754901;77;44017;-25
2021/05/26 20:37:58;;;;;;;1.30;1.20;;;;;;;7.80;100.00;97893.38;3752877;77;43333;-25
2021/05/26 20:43:05;;;;;;;2.83;1.20;;;;;;;7.74;100.00;97899.34;3747294;78;43158;-25
2021/05/26 20:48:11;;;;;;;1.00;0.98;;;;;;;7.69;100.00;97903.36;3748162;77;42817;-25
2021/05/26 20:53:18;;;;;;;1.20;1.07;;;;;;;7.69;100.00;97914.09;3750148;77;43437;-24
2021/05/26 20:58:23;;;;;;;1.35;1.20;;;;;;;7.71;100.00;97907.22;3746753;79;43314;-24
2021/05/26 21:03:29;;;;;;;3.00;1.87;;;;;;;7.76;100.00;97918.30;3814942;76;43657;-27
2021/05/26 21:08:36;;;;;;;2.62;1.60;;;;;;;7.76;100.00;97916.95;3807592;76;44117;-24
2021/05/26 21:13:42;;;;;;;2.22;1.45;;;;;;;7.75;100.00;97914.44;3811019;77;44670;-25
2021/05/26 21:18:48;;;;;;;1.30;1.20;;;;;;;7.69;100.00;97915.42;3812814;77;44469;-25
2021/05/26 21:23:57;;;;;;;2.15;1.50;;;;;;;7.66;100.00;97918.89;3740990;77;43596;-24
2021/05/26 21:29:03;;;;;;;1.35;1.20;;;;;;;7.59;100.00;97919.18;3814414;77;44321;-25
2021/05/26 21:34:09;;;;;;;1.52;1.30;;;;;;;7.48;100.00;97919.77;3739288;77;43714;-25
2021/05/26 21:39:15;;;;;;;1.60;1.40;;;;;;;7.40;100.00;97915.17;3820949;76;43673;-25
2021/05/26 21:44:22;;;;;;;1.65;1.30;;;;;;;7.39;100.00;97924.20;3817267;76;44066;-25
2021/05/26 21:49:28;;;;;;;1.60;1.50;;;;;;;7.34;100.00;97935.89;3825394;77;42880;-25
2021/05/26 21:54:34;;;;;;;1.60;1.50;;;;;;;7.30;100.00;97937.19;3819125;76;43327;-25
2021/05/26 21:59:40;;;;;;;2.10;1.60;;;;;;;7.25;100.00;97940.80;3740047;79;43433;-25
2021/05/26 22:04:49;;;;;;;1.75;1.60;;;;;;;7.24;100.00;97952.52;3819158;77;44050;-25
2021/05/26 22:09:55;;;;;;;1.70;1.60;;;;;;;7.15;100.00;97946.25;3820644;76;44893;-24
2021/05/26 22:15:01;;;;;;;2.20;1.72;;;;;;;7.14;100.00;97947.72;3824475;77;44084;-24
2021/05/26 22:20:10;;;;;;;1.65;1.55;;;;;;;7.11;100.00;97943.52;3810017;76;44519;-24
2021/05/26 22:25:20;;;;;;;1.98;1.72;;;;;;;7.05;100.00;97951.66;3809263;76;43639;-25
2021/05/26 22:30:28;;;;;;;2.53;2.30;;;;;;;7.01;100.00;97950.77;3819507;76;73229;-25
2021/05/26 22:35:35;;;;;;;3.45;2.00;;;;;;;7.09;100.00;97940.14;3737306;79;73278;-24
2021/05/26 22:40:41;;;;;;;2.70;2.50;;;;;;;7.11;100.00;97944.86;3827466;76;44054;-25
2021/05/26 22:45:51;;;;;;;2.55;2.30;;;;;;;7.07;100.00;97948.82;3814158;77;43277;-25
2021/05/26 22:50:57;;;;;;;3.72;2.50;;;;;;;7.27;100.00;97937.48;3805868;77;43066;-25
2021/05/26 22:56:03;;;;;;;4.10;2.20;;;;;;;7.28;100.00;97946.38;3801482;76;43616;-25
2021/05/26 23:01:10;;;;;;;3.33;3.03;;;;;;;7.23;100.00;97956.22;3815860;76;44780;-24
2021/05/26 23:06:16;;;;;;;3.67;2.33;;;;;;;7.16;100.00;97952.44;3814319;77;43317;-25
2021/05/26 23:11:22;;;;;;;2.40;2.20;;;;;;;6.94;100.00;97960.73;3740657;77;44573;-25
2021/05/26 23:16:28;;;;;;;2.23;2.00;;;;;;;6.83;100.00;97960.11;3739569;79;44550;-25
2021/05/26 23:21:33;;;;;;;2.40;2.17;;;;;;;6.75;100.00;97953.67;3814999;77;43405;-25
2021/05/26 23:26:39;;;;;;;2.53;2.10;;;;;;;6.72;100.00;97962.47;3739924;77;44441;-24
2021/05/26 23:31:45;;;;;;;2.90;2.60;;;;;;;6.66;100.00;97970.59;3799056;76;73357;-24
2021/05/26 23:36:51;;;;;;;3.23;2.93;;;;;;;6.65;100.00;97978.78;3753689;77;43381;-24
2021/05/26 23:41:57;;;;;;;3.03;2.73;;;;;;;6.63;100.00;97977.61;3737825;77;44050;-24
2021/05/26 23:47:02;;;;;;;3.20;2.77;;;;;;;6.59;100.00;97966.33;3810438;76;43367;-24
2021/05/26 23:52:09;;;;;;;4.62;3.12;;;;;;;6.58;100.00;97965.15;3823313;77;43428;-25
2021/05/26 23:57:14;;;;;;;3.72;3.00;;;;;;;6.54;100.00;97971.30;3822925;76;44007;-25
